sensor_id;sensor_type;location;lat;lon;timestamp;P1;durP1;ratioP1;P2;durP2;ratioP2
19032;SDS011;9649;51.042;13.804;2023-02-12T00:02:33;49.27;;;25.57;;
19032;SDS011;9649;51.042;13.804;2023-02-12T00:07:35;48.27;;;25.53;;
19032;SDS011;9649;51.042;13.804;2023-02-12T00:12:39;49.47;;;25.47;;
19032;SDS011;9649;51.042;13.804;2023-02-12T00:17:42;47.27;;;24.47;;
19032;SDS011;9649;51.042;13.804;2023-02-12T00:22:45;53.67;;;25.97;;
19032;SDS011;9649;51.042;13.804;2023-02-12T00:27:49;52.20;;;26.70;;
19032;SDS011;9649;51.042;13.804;2023-02-12T00:32:51;50.90;;;25.63;;
19032;SDS011;9649;51.042;13.804;2023-02-12T00:37:54;54.67;;;26.53;;
19032;SDS011;9649;51.042;13.804;2023-02-12T00:42:58;54.47;;;26.80;;
19032;SDS011;9649;51.042;13.804;2023-02-12T00:48:01;54.37;;;27.10;;
19032;SDS011;9649;51.042;13.804;2023-02-12T00:53:04;52.13;;;27.70;;
19032;SDS011;9649;51.042;13.804;2023-02-12T00:58:08;56.67;;;27.57;;
19032;SDS011;9649;51.042;13.804;2023-02-12T01:03:11;56.80;;;28.10;;
19032;SDS011;9649;51.042;13.804;2023-02-12T01:08:14;55.50;;;26.87;;
19032;SDS011;9649;51.042;13.804;2023-02-12T01:13:19;56.07;;;27.20;;
19032;SDS011;9649;51.042;13.804;2023-02-12T01:18:21;58.30;;;28.77;;
19032;SDS011;9649;51.042;13.804;2023-02-12T01:23:24;59.47;;;27.77;;
19032;SDS011;9649;51.042;13.804;2023-02-12T01:28:28;49.47;;;26.63;;
19032;SDS011;9649;51.042;13.804;2023-02-12T01:33:31;53.40;;;26.90;;
19032;SDS011;9649;51.042;13.804;2023-02-12T01:38:33;52.50;;;25.83;;
19032;SDS011;9649;51.042;13.804;2023-02-12T01:43:37;50.70;;;25.60;;
19032;SDS011;9649;51.042;13.804;2023-02-12T01:48:41;55.97;;;27.30;;
19032;SDS011;9649;51.042;13.804;2023-02-12T01:53:48;59.27;;;27.63;;
19032;SDS011;9649;51.042;13.804;2023-02-12T01:58:54;53.20;;;26.60;;
19032;SDS011;9649;51.042;13.804;2023-02-12T02:03:58;49.93;;;26.33;;
19032;SDS011;9649;51.042;13.804;2023-02-12T02:09:04;52.63;;;24.70;;
19032;SDS011;9649;51.042;13.804;2023-02-12T02:14:08;52.07;;;26.40;;
19032;SDS011;9649;51.042;13.804;2023-02-12T02:19:32;49.47;;;25.17;;
19032;SDS011;9649;51.042;13.804;2023-02-12T02:24:58;55.03;;;26.70;;
19032;SDS011;9649;51.042;13.804;2023-02-12T02:30:29;57.30;;;27.33;;
19032;SDS011;9649;51.042;13.804;2023-02-12T02:35:36;57.73;;;28.17;;
19032;SDS011;9649;51.042;13.804;2023-02-12T02:40:44;58.50;;;28.03;;
19032;SDS011;9649;51.042;13.804;2023-02-12T02:45:54;60.23;;;28.57;;
19032;SDS011;9649;51.042;13.804;2023-02-12T02:51:04;55.70;;;27.40;;
19032;SDS011;9649;51.042;13.804;2023-02-12T02:56:11;56.97;;;27.60;;
19032;SDS011;9649;51.042;13.804;2023-02-12T03:01:19;57.03;;;28.17;;
19032;SDS011;9649;51.042;13.804;2023-02-12T03:06:26;56.97;;;28.33;;
19032;SDS011;9649;51.042;13.804;2023-02-12T03:11:34;60.57;;;30.23;;
19032;SDS011;9649;51.042;13.804;2023-02-12T03:16:39;60.77;;;30.63;;
19032;SDS011;9649;51.042;13.804;2023-02-12T03:21:46;64.97;;;28.53;;
19032;SDS011;9649;51.042;13.804;2023-02-12T03:26:52;58.33;;;27.43;;
19032;SDS011;9649;51.042;13.804;2023-02-12T03:32:06;57.50;;;27.83;;
19032;SDS011;9649;51.042;13.804;2023-02-12T03:37:19;61.97;;;29.67;;
19032;SDS011;9649;51.042;13.804;2023-02-12T03:42:31;59.97;;;28.40;;
19032;SDS011;9649;51.042;13.804;2023-02-12T03:47:40;54.40;;;26.80;;
19032;SDS011;9649;51.042;13.804;2023-02-12T03:52:47;56.13;;;27.73;;
19032;SDS011;9649;51.042;13.804;2023-02-12T03:57:53;58.13;;;27.80;;
19032;SDS011;9649;51.042;13.804;2023-02-12T04:03:02;61.50;;;29.03;;
19032;SDS011;9649;51.042;13.804;2023-02-12T04:08:06;66.90;;;30.37;;
19032;SDS011;9649;51.042;13.804;2023-02-12T04:13:15;61.23;;;29.67;;
19032;SDS011;9649;51.042;13.804;2023-02-12T04:18:25;61.60;;;29.30;;
19032;SDS011;9649;51.042;13.804;2023-02-12T04:23:45;63.70;;;29.53;;
19032;SDS011;9649;51.042;13.804;2023-02-12T04:28:55;64.23;;;30.67;;
19032;SDS011;9649;51.042;13.804;2023-02-12T04:34:08;66.00;;;31.60;;
19032;SDS011;9649;51.042;13.804;2023-02-12T04:39:16;68.70;;;30.87;;
19032;SDS011;9649;51.042;13.804;2023-02-12T04:44:23;71.67;;;32.53;;
19032;SDS011;9649;51.042;13.804;2023-02-12T04:49:28;69.47;;;31.93;;
19032;SDS011;9649;51.042;13.804;2023-02-12T04:54:31;72.80;;;33.00;;
19032;SDS011;9649;51.042;13.804;2023-02-12T04:59:34;71.67;;;30.93;;
19032;SDS011;9649;51.042;13.804;2023-02-12T05:04:38;76.50;;;33.97;;
19032;SDS011;9649;51.042;13.804;2023-02-12T05:09:44;71.27;;;32.20;;
19032;SDS011;9649;51.042;13.804;2023-02-12T05:14:46;76.43;;;32.00;;
19032;SDS011;9649;51.042;13.804;2023-02-12T05:19:50;71.33;;;33.00;;
19032;SDS011;9649;51.042;13.804;2023-02-12T05:24:53;74.87;;;33.53;;
19032;SDS011;9649;51.042;13.804;2023-02-12T05:29:56;74.67;;;32.83;;
19032;SDS011;9649;51.042;13.804;2023-02-12T05:35:00;74.10;;;33.00;;
19032;SDS011;9649;51.042;13.804;2023-02-12T05:40:03;83.67;;;33.93;;
19032;SDS011;9649;51.042;13.804;2023-02-12T05:45:07;73.17;;;31.33;;
19032;SDS011;9649;51.042;13.804;2023-02-12T05:50:11;72.03;;;32.73;;
19032;SDS011;9649;51.042;13.804;2023-02-12T05:55:16;84.07;;;34.33;;
19032;SDS011;9649;51.042;13.804;2023-02-12T06:00:19;75.03;;;33.10;;
19032;SDS011;9649;51.042;13.804;2023-02-12T06:05:23;72.07;;;31.47;;
19032;SDS011;9649;51.042;13.804;2023-02-12T06:10:26;76.07;;;31.50;;
19032;SDS011;9649;51.042;13.804;2023-02-12T06:15:29;61.50;;;29.23;;
19032;SDS011;9649;51.042;13.804;2023-02-12T06:20:33;69.83;;;29.83;;
19032;SDS011;9649;51.042;13.804;2023-02-12T06:25:36;67.17;;;30.03;;
19032;SDS011;9649;51.042;13.804;2023-02-12T06:30:38;65.07;;;30.17;;
19032;SDS011;9649;51.042;13.804;2023-02-12T06:35:43;71.07;;;30.00;;
19032;SDS011;9649;51.042;13.804;2023-02-12T06:40:45;63.40;;;29.93;;
19032;SDS011;9649;51.042;13.804;2023-02-12T06:45:48;64.23;;;28.90;;
19032;SDS011;9649;51.042;13.804;2023-02-12T06:50:52;65.00;;;29.63;;
19032;SDS011;9649;51.042;13.804;2023-02-12T06:55:55;60.77;;;28.57;;
19032;SDS011;9649;51.042;13.804;2023-02-12T07:01:06;54.67;;;26.57;;
19032;SDS011;9649;51.042;13.804;2023-02-12T07:06:12;58.40;;;27.03;;
19032;SDS011;9649;51.042;13.804;2023-02-12T07:11:15;56.13;;;27.70;;
19032;SDS011;9649;51.042;13.804;2023-02-12T07:16:18;50.23;;;25.23;;
19032;SDS011;9649;51.042;13.804;2023-02-12T07:21:22;52.20;;;24.73;;
19032;SDS011;9649;51.042;13.804;2023-02-12T07:26:25;51.53;;;24.80;;
19032;SDS011;9649;51.042;13.804;2023-02-12T07:31:28;51.07;;;26.40;;
19032;SDS011;9649;51.042;13.804;2023-02-12T07:36:32;55.67;;;26.53;;
19032;SDS011;9649;51.042;13.804;2023-02-12T07:41:35;47.97;;;25.27;;
19032;SDS011;9649;51.042;13.804;2023-02-12T07:46:39;45.67;;;22.93;;
19032;SDS011;9649;51.042;13.804;2023-02-12T07:51:47;47.37;;;23.30;;
19032;SDS011;9649;51.042;13.804;2023-02-12T07:56:51;49.40;;;25.40;;
19032;SDS011;9649;51.042;13.804;2023-02-12T08:01:54;51.07;;;25.07;;
19032;SDS011;9649;51.042;13.804;2023-02-12T08:06:59;49.53;;;25.63;;
19032;SDS011;9649;51.042;13.804;2023-02-12T08:12:03;46.40;;;25.50;;
19032;SDS011;9649;51.042;13.804;2023-02-12T08:17:08;50.93;;;24.83;;
19032;SDS011;9649;51.042;13.804;2023-02-12T08:22:20;49.77;;;24.83;;
19032;SDS011;9649;51.042;13.804;2023-02-12T08:41:02;44.07;;;23.90;;
19032;SDS011;9649;51.042;13.804;2023-02-12T08:52:20;41.50;;;24.03;;
19032;SDS011;9649;51.042;13.804;2023-02-12T08:57:27;43.87;;;21.73;;
19032;SDS011;9649;51.042;13.804;2023-02-12T09:02:29;43.40;;;23.70;;
19032;SDS011;9649;51.042;13.804;2023-02-12T09:07:33;40.67;;;21.47;;
19032;SDS011;9649;51.042;13.804;2023-02-12T09:12:37;37.73;;;21.13;;
19032;SDS011;9649;51.042;13.804;2023-02-12T09:17:39;36.23;;;20.47;;
19032;SDS011;9649;51.042;13.804;2023-02-12T09:22:43;41.87;;;22.50;;
19032;SDS011;9649;51.042;13.804;2023-02-12T09:27:47;35.50;;;19.90;;
19032;SDS011;9649;51.042;13.804;2023-02-12T09:32:50;38.00;;;20.07;;
19032;SDS011;9649;51.042;13.804;2023-02-12T09:37:53;33.50;;;19.73;;
19032;SDS011;9649;51.042;13.804;2023-02-12T09:43:05;34.60;;;19.57;;
19032;SDS011;9649;51.042;13.804;2023-02-12T09:48:28;34.67;;;19.27;;
19032;SDS011;9649;51.042;13.804;2023-02-12T09:53:39;33.43;;;18.63;;
19032;SDS011;9649;51.042;13.804;2023-02-12T09:58:49;31.03;;;17.67;;
19032;SDS011;9649;51.042;13.804;2023-02-12T10:03:54;40.50;;;21.63;;
19032;SDS011;9649;51.042;13.804;2023-02-12T10:08:58;25.97;;;14.87;;
19032;SDS011;9649;51.042;13.804;2023-02-12T10:14:20;29.40;;;16.43;;
19032;SDS011;9649;51.042;13.804;2023-02-12T10:19:34;26.60;;;13.53;;
19032;SDS011;9649;51.042;13.804;2023-02-12T10:25:08;22.27;;;12.13;;
19032;SDS011;9649;51.042;13.804;2023-02-12T10:30:25;22.40;;;12.10;;
19032;SDS011;9649;51.042;13.804;2023-02-12T10:35:32;25.43;;;11.80;;
19032;SDS011;9649;51.042;13.804;2023-02-12T10:40:36;22.63;;;10.33;;
19032;SDS011;9649;51.042;13.804;2023-02-12T10:45:45;20.77;;;10.27;;
19032;SDS011;9649;51.042;13.804;2023-02-12T10:50:51;24.80;;;10.83;;
19032;SDS011;9649;51.042;13.804;2023-02-12T10:56:05;24.43;;;11.87;;
19032;SDS011;9649;51.042;13.804;2023-02-12T11:01:19;18.40;;;9.60;;
19032;SDS011;9649;51.042;13.804;2023-02-12T11:06:26;19.60;;;9.33;;
19032;SDS011;9649;51.042;13.804;2023-02-12T11:11:35;20.67;;;9.80;;
19032;SDS011;9649;51.042;13.804;2023-02-12T11:16:42;20.93;;;9.23;;
19032;SDS011;9649;51.042;13.804;2023-02-12T11:22:03;17.00;;;8.40;;
19032;SDS011;9649;51.042;13.804;2023-02-12T11:32:32;15.30;;;7.30;;
19032;SDS011;9649;51.042;13.804;2023-02-12T11:37:34;14.23;;;6.53;;
19032;SDS011;9649;51.042;13.804;2023-02-12T11:42:45;18.80;;;6.67;;
19032;SDS011;9649;51.042;13.804;2023-02-12T11:47:51;16.60;;;6.30;;
19032;SDS011;9649;51.042;13.804;2023-02-12T11:52:55;14.83;;;5.57;;
19032;SDS011;9649;51.042;13.804;2023-02-12T11:58:02;21.17;;;6.23;;
19032;SDS011;9649;51.042;13.804;2023-02-12T12:03:10;15.93;;;6.47;;
19032;SDS011;9649;51.042;13.804;2023-02-12T12:08:19;21.57;;;6.30;;
19032;SDS011;9649;51.042;13.804;2023-02-12T12:13:26;15.23;;;5.47;;
19032;SDS011;9649;51.042;13.804;2023-02-12T12:18:39;19.73;;;6.17;;
19032;SDS011;9649;51.042;13.804;2023-02-12T12:24:04;20.13;;;6.43;;
19032;SDS011;9649;51.042;13.804;2023-02-12T12:29:12;17.27;;;6.97;;
19032;SDS011;9649;51.042;13.804;2023-02-12T12:34:22;19.03;;;6.30;;
19032;SDS011;9649;51.042;13.804;2023-02-12T12:39:27;17.80;;;5.93;;
19032;SDS011;9649;51.042;13.804;2023-02-12T12:44:37;21.50;;;6.67;;
19032;SDS011;9649;51.042;13.804;2023-02-12T12:50:01;15.40;;;5.30;;
19032;SDS011;9649;51.042;13.804;2023-02-12T12:55:22;26.97;;;9.93;;
19032;SDS011;9649;51.042;13.804;2023-02-12T13:06:13;19.27;;;5.93;;
19032;SDS011;9649;51.042;13.804;2023-02-12T13:11:31;14.67;;;5.17;;
19032;SDS011;9649;51.042;13.804;2023-02-12T13:16:41;20.57;;;5.80;;
19032;SDS011;9649;51.042;13.804;2023-02-12T13:21:52;20.47;;;5.97;;
19032;SDS011;9649;51.042;13.804;2023-02-12T13:26:59;19.10;;;6.30;;
19032;SDS011;9649;51.042;13.804;2023-02-12T13:32:09;29.10;;;7.03;;
19032;SDS011;9649;51.042;13.804;2023-02-12T13:37:19;22.93;;;7.20;;
19032;SDS011;9649;51.042;13.804;2023-02-12T13:42:36;24.30;;;7.30;;
19032;SDS011;9649;51.042;13.804;2023-02-12T13:47:48;21.37;;;6.63;;
19032;SDS011;9649;51.042;13.804;2023-02-12T13:53:02;21.00;;;6.90;;
19032;SDS011;9649;51.042;13.804;2023-02-12T14:03:56;23.30;;;7.37;;
19032;SDS011;9649;51.042;13.804;2023-02-12T14:09:19;18.97;;;6.60;;
19032;SDS011;9649;51.042;13.804;2023-02-12T14:14:24;17.80;;;6.97;;
19032;SDS011;9649;51.042;13.804;2023-02-12T14:19:35;13.50;;;5.17;;
19032;SDS011;9649;51.042;13.804;2023-02-12T14:24:49;9.40;;;4.40;;
19032;SDS011;9649;51.042;13.804;2023-02-12T14:30:00;12.57;;;4.63;;
19032;SDS011;9649;51.042;13.804;2023-02-12T14:40:39;12.57;;;5.20;;
19032;SDS011;9649;51.042;13.804;2023-02-12T14:45:44;12.40;;;5.17;;
19032;SDS011;9649;51.042;13.804;2023-02-12T14:50:46;12.27;;;4.73;;
19032;SDS011;9649;51.042;13.804;2023-02-12T14:55:53;10.77;;;5.40;;
19032;SDS011;9649;51.042;13.804;2023-02-12T15:00:59;11.43;;;5.50;;
19032;SDS011;9649;51.042;13.804;2023-02-12T15:06:06;12.77;;;5.13;;
19032;SDS011;9649;51.042;13.804;2023-02-12T15:11:18;12.17;;;6.17;;
19032;SDS011;9649;51.042;13.804;2023-02-12T15:16:28;13.93;;;5.83;;
19032;SDS011;9649;51.042;13.804;2023-02-12T15:21:35;13.90;;;6.00;;
19032;SDS011;9649;51.042;13.804;2023-02-12T15:26:41;17.13;;;6.53;;
19032;SDS011;9649;51.042;13.804;2023-02-12T15:31:48;14.03;;;6.30;;
19032;SDS011;9649;51.042;13.804;2023-02-12T15:36:56;13.53;;;6.83;;
19032;SDS011;9649;51.042;13.804;2023-02-12T15:42:02;14.07;;;6.83;;
19032;SDS011;9649;51.042;13.804;2023-02-12T15:47:10;15.93;;;7.77;;
19032;SDS011;9649;51.042;13.804;2023-02-12T15:52:15;16.53;;;7.70;;
19032;SDS011;9649;51.042;13.804;2023-02-12T15:57:22;21.30;;;11.53;;
19032;SDS011;9649;51.042;13.804;2023-02-12T16:02:26;17.63;;;9.70;;
19032;SDS011;9649;51.042;13.804;2023-02-12T16:07:35;16.53;;;8.30;;
19032;SDS011;9649;51.042;13.804;2023-02-12T16:12:40;19.40;;;8.43;;
19032;SDS011;9649;51.042;13.804;2023-02-12T16:17:45;15.37;;;8.40;;
19032;SDS011;9649;51.042;13.804;2023-02-12T16:22:49;13.87;;;8.17;;
19032;SDS011;9649;51.042;13.804;2023-02-12T16:27:56;19.47;;;8.43;;
19032;SDS011;9649;51.042;13.804;2023-02-12T16:33:01;20.83;;;9.83;;
19032;SDS011;9649;51.042;13.804;2023-02-12T16:43:41;18.53;;;9.20;;
19032;SDS011;9649;51.042;13.804;2023-02-12T16:48:45;17.77;;;10.10;;
19032;SDS011;9649;51.042;13.804;2023-02-12T16:53:49;26.23;;;12.57;;
19032;SDS011;9649;51.042;13.804;2023-02-12T16:58:56;25.23;;;12.87;;
19032;SDS011;9649;51.042;13.804;2023-02-12T17:04:01;24.10;;;12.60;;
19032;SDS011;9649;51.042;13.804;2023-02-12T17:09:07;21.37;;;11.97;;
19032;SDS011;9649;51.042;13.804;2023-02-12T17:14:13;24.07;;;13.03;;
19032;SDS011;9649;51.042;13.804;2023-02-12T17:19:17;26.17;;;13.47;;
19032;SDS011;9649;51.042;13.804;2023-02-12T17:24:20;27.80;;;14.33;;
19032;SDS011;9649;51.042;13.804;2023-02-12T17:29:26;27.40;;;15.40;;
19032;SDS011;9649;51.042;13.804;2023-02-12T17:34:30;32.50;;;17.00;;
19032;SDS011;9649;51.042;13.804;2023-02-12T17:39:48;30.80;;;16.77;;
19032;SDS011;9649;51.042;13.804;2023-02-12T17:44:52;27.60;;;15.57;;
19032;SDS011;9649;51.042;13.804;2023-02-12T17:49:55;23.87;;;13.83;;
19032;SDS011;9649;51.042;13.804;2023-02-12T17:54:57;30.30;;;15.87;;
19032;SDS011;9649;51.042;13.804;2023-02-12T18:00:02;28.20;;;15.33;;
19032;SDS011;9649;51.042;13.804;2023-02-12T18:05:05;21.40;;;12.73;;
19032;SDS011;9649;51.042;13.804;2023-02-12T18:10:09;22.30;;;12.70;;
19032;SDS011;9649;51.042;13.804;2023-02-12T18:15:14;25.50;;;13.67;;
19032;SDS011;9649;51.042;13.804;2023-02-12T18:20:16;22.63;;;13.20;;
19032;SDS011;9649;51.042;13.804;2023-02-12T18:25:19;26.43;;;13.67;;
19032;SDS011;9649;51.042;13.804;2023-02-12T18:30:23;24.70;;;13.37;;
19032;SDS011;9649;51.042;13.804;2023-02-12T18:35:26;23.87;;;13.03;;
19032;SDS011;9649;51.042;13.804;2023-02-12T18:40:29;25.40;;;14.57;;
19032;SDS011;9649;51.042;13.804;2023-02-12T18:45:33;23.83;;;14.10;;
19032;SDS011;9649;51.042;13.804;2023-02-12T18:50:36;25.63;;;13.97;;
19032;SDS011;9649;51.042;13.804;2023-02-12T18:55:39;29.73;;;15.40;;
19032;SDS011;9649;51.042;13.804;2023-02-12T19:00:43;27.53;;;15.33;;
19032;SDS011;9649;51.042;13.804;2023-02-12T19:05:45;30.93;;;16.00;;
19032;SDS011;9649;51.042;13.804;2023-02-12T19:10:48;31.30;;;16.60;;
19032;SDS011;9649;51.042;13.804;2023-02-12T19:15:52;30.43;;;16.27;;
19032;SDS011;9649;51.042;13.804;2023-02-12T21:00:05;33.00;;;17.53;;
19032;SDS011;9649;51.042;13.804;2023-02-12T21:37:03;34.97;;;17.43;;
19032;SDS011;9649;51.042;13.804;2023-02-12T21:42:26;35.90;;;18.83;;
19032;SDS011;9649;51.042;13.804;2023-02-12T21:53:16;36.33;;;18.13;;
19032;SDS011;9649;51.042;13.804;2023-02-12T21:58:19;37.40;;;19.57;;
19032;SDS011;9649;51.042;13.804;2023-02-12T22:03:23;34.37;;;18.07;;
19032;SDS011;9649;51.042;13.804;2023-02-12T22:08:27;35.73;;;18.33;;
19032;SDS011;9649;51.042;13.804;2023-02-12T22:13:30;36.80;;;17.93;;
19032;SDS011;9649;51.042;13.804;2023-02-12T22:18:33;35.50;;;18.40;;
19032;SDS011;9649;51.042;13.804;2023-02-12T22:23:37;37.17;;;19.90;;
19032;SDS011;9649;51.042;13.804;2023-02-12T22:28:40;39.93;;;20.23;;
19032;SDS011;9649;51.042;13.804;2023-02-12T22:33:44;39.27;;;20.07;;
19032;SDS011;9649;51.042;13.804;2023-02-12T22:38:48;44.40;;;21.70;;
19032;SDS011;9649;51.042;13.804;2023-02-12T22:43:51;37.20;;;19.57;;
19032;SDS011;9649;51.042;13.804;2023-02-12T22:48:55;34.83;;;18.63;;
19032;SDS011;9649;51.042;13.804;2023-02-12T22:53:59;35.57;;;18.77;;
19032;SDS011;9649;51.042;13.804;2023-02-12T22:59:01;34.83;;;18.73;;
19032;SDS011;9649;51.042;13.804;2023-02-12T23:04:04;34.17;;;18.50;;
19032;SDS011;9649;51.042;13.804;2023-02-12T23:09:10;33.33;;;17.20;;
19032;SDS011;9649;51.042;13.804;2023-02-12T23:14:13;28.33;;;16.03;;
19032;SDS011;9649;51.042;13.804;2023-02-12T23:19:16;29.33;;;16.90;;
19032;SDS011;9649;51.042;13.804;2023-02-12T23:24:20;30.93;;;16.97;;
19032;SDS011;9649;51.042;13.804;2023-02-12T23:29:24;33.07;;;17.60;;
19032;SDS011;9649;51.042;13.804;2023-02-12T23:34:27;30.80;;;17.17;;
19032;SDS011;9649;51.042;13.804;2023-02-12T23:39:31;30.83;;;17.77;;
19032;SDS011;9649;51.042;13.804;2023-02-12T23:44:33;32.80;;;17.47;;
19032;SDS011;9649;51.042;13.804;2023-02-12T23:49:38;29.63;;;16.97;;
19032;SDS011;9649;51.042;13.804;2023-02-12T23:54:42;32.97;;;18.17;;
19032;SDS011;9649;51.042;13.804;2023-02-12T23:59:45;33.00;;;17.87;;
